sensor_id;sensor_type;location;lat;lon;timestamp;temperature;humidity
72484;DHT22;74199;52.014;5.430;2023-12-04T00:00:36;16.50;42.70
72484;DHT22;74199;52.014;5.430;2023-12-04T00:03:03;16.50;42.60
72484;DHT22;74199;52.014;5.430;2023-12-04T00:05:30;16.50;42.60
72484;DHT22;74199;52.014;5.430;2023-12-04T00:07:57;16.50;42.60
72484;DHT22;74199;52.014;5.430;2023-12-04T00:10:24;16.50;42.60
72484;DHT22;74199;52.014;5.430;2023-12-04T00:12:51;16.50;42.60
72484;DHT22;74199;52.014;5.430;2023-12-04T00:15:19;16.50;42.60
72484;DHT22;74199;52.014;5.430;2023-12-04T00:17:46;16.50;42.60
72484;DHT22;74199;52.014;5.430;2023-12-04T00:20:13;16.50;42.60
72484;DHT22;74199;52.014;5.430;2023-12-04T00:22:40;16.60;42.70
72484;DHT22;74199;52.014;5.430;2023-12-04T00:25:07;16.60;42.50
72484;DHT22;74199;52.014;5.430;2023-12-04T00:27:34;16.60;42.50
72484;DHT22;74199;52.014;5.430;2023-12-04T00:30:02;16.60;42.60
72484;DHT22;74199;52.014;5.430;2023-12-04T00:32:30;16.60;42.50
72484;DHT22;74199;52.014;5.430;2023-12-04T00:34:57;16.50;42.60
72484;DHT22;74199;52.014;5.430;2023-12-04T00:37:26;16.60;42.60
72484;DHT22;74199;52.014;5.430;2023-12-04T00:39:53;16.60;42.50
72484;DHT22;74199;52.014;5.430;2023-12-04T00:42:21;16.60;42.50
72484;DHT22;74199;52.014;5.430;2023-12-04T00:44:48;16.60;42.50
72484;DHT22;74199;52.014;5.430;2023-12-04T00:47:15;16.60;42.50
72484;DHT22;74199;52.014;5.430;2023-12-04T00:49:42;16.60;42.50
72484;DHT22;74199;52.014;5.430;2023-12-04T00:52:09;16.60;42.50
72484;DHT22;74199;52.014;5.430;2023-12-04T00:54:39;16.60;42.40
72484;DHT22;74199;52.014;5.430;2023-12-04T00:57:07;16.60;42.40
72484;DHT22;74199;52.014;5.430;2023-12-04T00:59:34;16.60;42.40
72484;DHT22;74199;52.014;5.430;2023-12-04T01:02:01;16.70;42.30
72484;DHT22;74199;52.014;5.430;2023-12-04T01:04:28;16.70;42.30
72484;DHT22;74199;52.014;5.430;2023-12-04T01:06:56;16.70;42.20
72484;DHT22;74199;52.014;5.430;2023-12-04T01:09:22;16.70;42.20
72484;DHT22;74199;52.014;5.430;2023-12-04T01:11:54;16.70;42.20
72484;DHT22;74199;52.014;5.430;2023-12-04T01:14:21;16.70;42.20
72484;DHT22;74199;52.014;5.430;2023-12-04T01:16:48;16.70;42.20
72484;DHT22;74199;52.014;5.430;2023-12-04T01:19:15;16.70;42.10
72484;DHT22;74199;52.014;5.430;2023-12-04T01:21:42;16.70;42.20
72484;DHT22;74199;52.014;5.430;2023-12-04T01:24:09;16.70;42.20
72484;DHT22;74199;52.014;5.430;2023-12-04T01:26:36;16.70;42.20
72484;DHT22;74199;52.014;5.430;2023-12-04T01:29:03;16.70;42.20
72484;DHT22;74199;52.014;5.430;2023-12-04T01:31:30;16.70;42.20
72484;DHT22;74199;52.014;5.430;2023-12-04T01:33:57;16.70;42.20
72484;DHT22;74199;52.014;5.430;2023-12-04T01:36:24;16.70;42.10
72484;DHT22;74199;52.014;5.430;2023-12-04T01:38:51;16.70;42.20
72484;DHT22;74199;52.014;5.430;2023-12-04T01:41:18;16.70;42.20
72484;DHT22;74199;52.014;5.430;2023-12-04T01:43:45;16.70;42.10
72484;DHT22;74199;52.014;5.430;2023-12-04T01:46:13;16.70;42.10
72484;DHT22;74199;52.014;5.430;2023-12-04T01:48:43;16.70;42.10
72484;DHT22;74199;52.014;5.430;2023-12-04T01:51:11;16.70;42.00
72484;DHT22;74199;52.014;5.430;2023-12-04T01:53:39;16.80;42.10
72484;DHT22;74199;52.014;5.430;2023-12-04T01:56:07;16.80;42.00
72484;DHT22;74199;52.014;5.430;2023-12-04T01:58:34;16.80;42.00
72484;DHT22;74199;52.014;5.430;2023-12-04T02:01:01;16.80;42.00
72484;DHT22;74199;52.014;5.430;2023-12-04T02:03:29;16.80;41.90
72484;DHT22;74199;52.014;5.430;2023-12-04T02:05:59;16.80;41.90
72484;DHT22;74199;52.014;5.430;2023-12-04T02:08:26;16.80;41.90
72484;DHT22;74199;52.014;5.430;2023-12-04T02:10:53;16.90;41.90
72484;DHT22;74199;52.014;5.430;2023-12-04T02:13:20;16.80;41.80
72484;DHT22;74199;52.014;5.430;2023-12-04T02:15:50;16.80;41.90
72484;DHT22;74199;52.014;5.430;2023-12-04T02:18:19;16.80;41.80
72484;DHT22;74199;52.014;5.430;2023-12-04T02:20:46;16.90;41.80
72484;DHT22;74199;52.014;5.430;2023-12-04T02:23:12;16.90;41.80
72484;DHT22;74199;52.014;5.430;2023-12-04T02:25:39;16.90;41.70
72484;DHT22;74199;52.014;5.430;2023-12-04T02:28:11;16.90;41.70
72484;DHT22;74199;52.014;5.430;2023-12-04T02:30:42;16.90;41.70
72484;DHT22;74199;52.014;5.430;2023-12-04T02:33:11;16.90;41.70
72484;DHT22;74199;52.014;5.430;2023-12-04T02:35:40;16.90;41.70
72484;DHT22;74199;52.014;5.430;2023-12-04T02:38:09;16.90;41.60
72484;DHT22;74199;52.014;5.430;2023-12-04T02:40:36;16.90;41.60
72484;DHT22;74199;52.014;5.430;2023-12-04T02:43:03;16.90;41.60
72484;DHT22;74199;52.014;5.430;2023-12-04T02:45:30;16.90;41.60
72484;DHT22;74199;52.014;5.430;2023-12-04T02:47:57;16.90;41.60
72484;DHT22;74199;52.014;5.430;2023-12-04T02:50:24;16.90;41.60
72484;DHT22;74199;52.014;5.430;2023-12-04T02:52:51;16.90;41.60
72484;DHT22;74199;52.014;5.430;2023-12-04T02:55:18;16.90;41.60
72484;DHT22;74199;52.014;5.430;2023-12-04T02:57:45;16.90;41.60
72484;DHT22;74199;52.014;5.430;2023-12-04T03:00:12;16.90;41.60
72484;DHT22;74199;52.014;5.430;2023-12-04T03:02:39;16.90;41.50
72484;DHT22;74199;52.014;5.430;2023-12-04T03:05:06;16.90;41.50
72484;DHT22;74199;52.014;5.430;2023-12-04T03:07:33;16.90;41.50
72484;DHT22;74199;52.014;5.430;2023-12-04T03:10:00;16.90;41.60
72484;DHT22;74199;52.014;5.430;2023-12-04T03:12:27;16.90;41.60
72484;DHT22;74199;52.014;5.430;2023-12-04T03:14:54;16.90;41.60
72484;DHT22;74199;52.014;5.430;2023-12-04T03:17:21;16.90;41.60
72484;DHT22;74199;52.014;5.430;2023-12-04T03:19:48;16.90;41.50
72484;DHT22;74199;52.014;5.430;2023-12-04T03:22:17;16.90;41.50
72484;DHT22;74199;52.014;5.430;2023-12-04T03:24:44;16.90;41.40
72484;DHT22;74199;52.014;5.430;2023-12-04T03:27:11;16.90;41.40
72484;DHT22;74199;52.014;5.430;2023-12-04T03:29:38;16.90;41.50
72484;DHT22;74199;52.014;5.430;2023-12-04T03:32:05;16.90;41.50
72484;DHT22;74199;52.014;5.430;2023-12-04T03:34:32;16.90;41.50
72484;DHT22;74199;52.014;5.430;2023-12-04T03:36:59;16.90;41.40
72484;DHT22;74199;52.014;5.430;2023-12-04T03:39:26;16.90;41.40
72484;DHT22;74199;52.014;5.430;2023-12-04T03:41:53;17.00;41.40
72484;DHT22;74199;52.014;5.430;2023-12-04T03:44:20;16.90;41.40
72484;DHT22;74199;52.014;5.430;2023-12-04T03:46:47;16.90;41.40
72484;DHT22;74199;52.014;5.430;2023-12-04T03:49:13;16.90;41.40
72484;DHT22;74199;52.014;5.430;2023-12-04T03:51:40;16.90;41.40
72484;DHT22;74199;52.014;5.430;2023-12-04T03:54:07;16.90;41.40
72484;DHT22;74199;52.014;5.430;2023-12-04T03:56:34;16.90;41.30
72484;DHT22;74199;52.014;5.430;2023-12-04T03:59:01;16.90;41.30
72484;DHT22;74199;52.014;5.430;2023-12-04T04:01:28;16.90;41.40
72484;DHT22;74199;52.014;5.430;2023-12-04T04:03:56;16.90;41.30
72484;DHT22;74199;52.014;5.430;2023-12-04T04:06:23;17.00;41.30
72484;DHT22;74199;52.014;5.430;2023-12-04T04:08:50;16.90;41.30
72484;DHT22;74199;52.014;5.430;2023-12-04T04:11:17;17.00;41.30
72484;DHT22;74199;52.014;5.430;2023-12-04T04:13:43;17.00;41.30
72484;DHT22;74199;52.014;5.430;2023-12-04T04:16:17;17.00;41.20
72484;DHT22;74199;52.014;5.430;2023-12-04T04:18:43;17.00;41.20
72484;DHT22;74199;52.014;5.430;2023-12-04T04:21:11;17.00;41.20
72484;DHT22;74199;52.014;5.430;2023-12-04T04:23:38;16.90;41.20
72484;DHT22;74199;52.014;5.430;2023-12-04T04:26:05;17.00;41.20
72484;DHT22;74199;52.014;5.430;2023-12-04T04:28:32;17.00;41.20
72484;DHT22;74199;52.014;5.430;2023-12-04T04:30:59;17.00;41.10
72484;DHT22;74199;52.014;5.430;2023-12-04T04:33:26;17.00;41.10
72484;DHT22;74199;52.014;5.430;2023-12-04T04:35:53;17.00;41.10
72484;DHT22;74199;52.014;5.430;2023-12-04T04:38:20;17.00;41.10
72484;DHT22;74199;52.014;5.430;2023-12-04T04:40:47;17.00;41.00
72484;DHT22;74199;52.014;5.430;2023-12-04T04:43:14;17.00;41.10
72484;DHT22;74199;52.014;5.430;2023-12-04T04:45:41;17.00;41.10
72484;DHT22;74199;52.014;5.430;2023-12-04T04:48:08;17.00;41.10
72484;DHT22;74199;52.014;5.430;2023-12-04T04:50:35;17.00;41.00
72484;DHT22;74199;52.014;5.430;2023-12-04T04:53:02;17.00;41.00
72484;DHT22;74199;52.014;5.430;2023-12-04T04:55:29;17.00;41.00
72484;DHT22;74199;52.014;5.430;2023-12-04T04:58:15;17.00;41.00
72484;DHT22;74199;52.014;5.430;2023-12-04T05:00:43;17.00;41.00
72484;DHT22;74199;52.014;5.430;2023-12-04T05:03:10;17.00;41.00
72484;DHT22;74199;52.014;5.430;2023-12-04T05:05:37;17.00;41.00
72484;DHT22;74199;52.014;5.430;2023-12-04T05:08:04;17.00;41.00
72484;DHT22;74199;52.014;5.430;2023-12-04T05:10:31;17.00;41.00
72484;DHT22;74199;52.014;5.430;2023-12-04T05:12:58;17.00;41.00
72484;DHT22;74199;52.014;5.430;2023-12-04T05:15:25;17.00;41.00
72484;DHT22;74199;52.014;5.430;2023-12-04T05:17:52;17.00;41.00
72484;DHT22;74199;52.014;5.430;2023-12-04T05:20:19;17.00;40.90
72484;DHT22;74199;52.014;5.430;2023-12-04T05:22:46;17.00;40.90
72484;DHT22;74199;52.014;5.430;2023-12-04T05:25:14;17.00;40.90
72484;DHT22;74199;52.014;5.430;2023-12-04T05:27:41;17.00;40.80
72484;DHT22;74199;52.014;5.430;2023-12-04T05:30:08;17.00;40.80
72484;DHT22;74199;52.014;5.430;2023-12-04T05:32:35;17.00;40.90
72484;DHT22;74199;52.014;5.430;2023-12-04T05:35:02;17.00;40.80
72484;DHT22;74199;52.014;5.430;2023-12-04T05:37:29;17.00;40.80
72484;DHT22;74199;52.014;5.430;2023-12-04T05:39:56;17.00;40.70
72484;DHT22;74199;52.014;5.430;2023-12-04T05:42:23;17.00;40.80
72484;DHT22;74199;52.014;5.430;2023-12-04T05:44:51;17.00;40.80
72484;DHT22;74199;52.014;5.430;2023-12-04T05:47:21;17.00;40.80
72484;DHT22;74199;52.014;5.430;2023-12-04T05:49:48;17.00;40.80
72484;DHT22;74199;52.014;5.430;2023-12-04T05:52:15;17.00;40.80
72484;DHT22;74199;52.014;5.430;2023-12-04T05:54:42;17.00;40.70
72484;DHT22;74199;52.014;5.430;2023-12-04T05:57:09;17.00;40.70
72484;DHT22;74199;52.014;5.430;2023-12-04T05:59:36;17.10;40.60
72484;DHT22;74199;52.014;5.430;2023-12-04T06:02:03;17.10;40.70
72484;DHT22;74199;52.014;5.430;2023-12-04T06:04:30;17.10;40.60
72484;DHT22;74199;52.014;5.430;2023-12-04T06:06:57;17.10;40.60
72484;DHT22;74199;52.014;5.430;2023-12-04T06:09:24;17.10;40.60
72484;DHT22;74199;52.014;5.430;2023-12-04T06:11:51;17.00;40.70
72484;DHT22;74199;52.014;5.430;2023-12-04T06:14:18;17.00;40.80
72484;DHT22;74199;52.014;5.430;2023-12-04T06:16:45;17.00;40.90
72484;DHT22;74199;52.014;5.430;2023-12-04T06:19:12;17.00;40.80
72484;DHT22;74199;52.014;5.430;2023-12-04T06:21:39;17.00;40.90
72484;DHT22;74199;52.014;5.430;2023-12-04T06:24:07;17.00;40.90
72484;DHT22;74199;52.014;5.430;2023-12-04T06:26:36;17.00;40.90
72484;DHT22;74199;52.014;5.430;2023-12-04T06:29:07;17.00;41.00
72484;DHT22;74199;52.014;5.430;2023-12-04T06:31:34;16.90;41.10
72484;DHT22;74199;52.014;5.430;2023-12-04T06:34:02;16.90;41.10
72484;DHT22;74199;52.014;5.430;2023-12-04T06:36:31;16.90;41.30
72484;DHT22;74199;52.014;5.430;2023-12-04T06:39:02;16.90;41.30
72484;DHT22;74199;52.014;5.430;2023-12-04T06:41:31;16.90;41.40
72484;DHT22;74199;52.014;5.430;2023-12-04T06:43:58;17.00;41.30
72484;DHT22;74199;52.014;5.430;2023-12-04T06:46:27;17.00;41.30
72484;DHT22;74199;52.014;5.430;2023-12-04T06:48:59;17.10;41.30
72484;DHT22;74199;52.014;5.430;2023-12-04T06:51:26;17.10;41.30
72484;DHT22;74199;52.014;5.430;2023-12-04T06:53:53;17.10;41.30
72484;DHT22;74199;52.014;5.430;2023-12-04T06:56:20;17.10;41.30
72484;DHT22;74199;52.014;5.430;2023-12-04T06:58:47;17.10;41.40
72484;DHT22;74199;52.014;5.430;2023-12-04T07:01:14;17.10;41.40
72484;DHT22;74199;52.014;5.430;2023-12-04T07:03:42;17.10;41.40
72484;DHT22;74199;52.014;5.430;2023-12-04T07:06:09;17.10;41.30
72484;DHT22;74199;52.014;5.430;2023-12-04T07:08:36;17.10;41.40
72484;DHT22;74199;52.014;5.430;2023-12-04T07:11:03;17.10;41.50
72484;DHT22;74199;52.014;5.430;2023-12-04T07:13:30;17.10;41.50
72484;DHT22;74199;52.014;5.430;2023-12-04T07:15:57;17.10;41.60
72484;DHT22;74199;52.014;5.430;2023-12-04T07:18:26;17.10;41.50
72484;DHT22;74199;52.014;5.430;2023-12-04T07:20:53;17.20;41.60
72484;DHT22;74199;52.014;5.430;2023-12-04T07:23:20;17.20;41.50
72484;DHT22;74199;52.014;5.430;2023-12-04T07:25:50;17.20;41.50
72484;DHT22;74199;52.014;5.430;2023-12-04T07:28:18;17.20;41.50
72484;DHT22;74199;52.014;5.430;2023-12-04T07:30:46;17.20;41.40
72484;DHT22;74199;52.014;5.430;2023-12-04T07:33:13;17.20;41.40
72484;DHT22;74199;52.014;5.430;2023-12-04T07:35:40;17.20;41.40
72484;DHT22;74199;52.014;5.430;2023-12-04T07:38:07;17.20;41.40
72484;DHT22;74199;52.014;5.430;2023-12-04T07:40:34;17.20;41.40
72484;DHT22;74199;52.014;5.430;2023-12-04T07:43:01;17.20;41.50
72484;DHT22;74199;52.014;5.430;2023-12-04T07:45:29;17.20;41.50
72484;DHT22;74199;52.014;5.430;2023-12-04T07:47:56;17.20;41.50
72484;DHT22;74199;52.014;5.430;2023-12-04T07:50:23;17.20;41.50
72484;DHT22;74199;52.014;5.430;2023-12-04T07:52:51;17.20;41.40
72484;DHT22;74199;52.014;5.430;2023-12-04T07:55:18;17.20;41.40
72484;DHT22;74199;52.014;5.430;2023-12-04T07:57:44;17.20;41.40
72484;DHT22;74199;52.014;5.430;2023-12-04T08:00:12;17.20;41.40
72484;DHT22;74199;52.014;5.430;2023-12-04T08:02:39;17.10;41.30
72484;DHT22;74199;52.014;5.430;2023-12-04T08:05:06;17.10;41.40
72484;DHT22;74199;52.014;5.430;2023-12-04T08:07:36;17.10;41.30
72484;DHT22;74199;52.014;5.430;2023-12-04T08:10:03;17.10;41.30
72484;DHT22;74199;52.014;5.430;2023-12-04T08:12:30;17.10;41.30
72484;DHT22;74199;52.014;5.430;2023-12-04T08:14:57;17.10;41.40
72484;DHT22;74199;52.014;5.430;2023-12-04T08:17:24;17.10;41.40
72484;DHT22;74199;52.014;5.430;2023-12-04T08:19:51;17.20;41.30
72484;DHT22;74199;52.014;5.430;2023-12-04T08:22:19;17.20;41.20
72484;DHT22;74199;52.014;5.430;2023-12-04T08:24:46;17.20;41.20
72484;DHT22;74199;52.014;5.430;2023-12-04T08:27:13;17.30;41.20
72484;DHT22;74199;52.014;5.430;2023-12-04T08:29:40;17.30;41.10
72484;DHT22;74199;52.014;5.430;2023-12-04T08:32:07;17.30;41.10
72484;DHT22;74199;52.014;5.430;2023-12-04T08:34:34;17.30;41.10
72484;DHT22;74199;52.014;5.430;2023-12-04T08:37:03;17.40;41.10
72484;DHT22;74199;52.014;5.430;2023-12-04T08:39:30;17.30;41.10
72484;DHT22;74199;52.014;5.430;2023-12-04T08:41:57;17.30;41.10
72484;DHT22;74199;52.014;5.430;2023-12-04T08:44:30;17.40;41.00
72484;DHT22;74199;52.014;5.430;2023-12-04T08:46:57;17.40;41.00
72484;DHT22;74199;52.014;5.430;2023-12-04T08:49:25;17.30;41.00
72484;DHT22;74199;52.014;5.430;2023-12-04T08:52:06;17.40;40.90
72484;DHT22;74199;52.014;5.430;2023-12-04T08:54:33;17.30;40.90
72484;DHT22;74199;52.014;5.430;2023-12-04T08:57:00;17.30;40.90
72484;DHT22;74199;52.014;5.430;2023-12-04T08:59:31;17.30;40.90
72484;DHT22;74199;52.014;5.430;2023-12-04T09:01:59;17.30;41.00
72484;DHT22;74199;52.014;5.430;2023-12-04T09:04:33;17.30;40.90
72484;DHT22;74199;52.014;5.430;2023-12-04T09:07:01;17.40;40.90
72484;DHT22;74199;52.014;5.430;2023-12-04T09:09:48;17.40;40.90
72484;DHT22;74199;52.014;5.430;2023-12-04T09:12:16;17.40;40.80
72484;DHT22;74199;52.014;5.430;2023-12-04T09:14:43;17.40;40.80
72484;DHT22;74199;52.014;5.430;2023-12-04T09:17:10;17.40;40.70
72484;DHT22;74199;52.014;5.430;2023-12-04T09:19:37;17.40;40.70
72484;DHT22;74199;52.014;5.430;2023-12-04T09:22:04;17.40;40.70
72484;DHT22;74199;52.014;5.430;2023-12-04T09:24:44;17.40;40.60
72484;DHT22;74199;52.014;5.430;2023-12-04T09:27:11;17.40;40.70
72484;DHT22;74199;52.014;5.430;2023-12-04T09:29:38;17.40;40.60
72484;DHT22;74199;52.014;5.430;2023-12-04T09:32:06;17.40;40.60
72484;DHT22;74199;52.014;5.430;2023-12-04T09:34:33;17.40;40.60
72484;DHT22;74199;52.014;5.430;2023-12-04T09:37:00;17.40;40.60
72484;DHT22;74199;52.014;5.430;2023-12-04T09:39:37;17.50;40.50
72484;DHT22;74199;52.014;5.430;2023-12-04T09:42:04;17.50;40.50
72484;DHT22;74199;52.014;5.430;2023-12-04T09:44:32;17.50;40.40
72484;DHT22;74199;52.014;5.430;2023-12-04T09:47:01;17.50;40.20
72484;DHT22;74199;52.014;5.430;2023-12-04T09:49:30;17.40;40.20
72484;DHT22;74199;52.014;5.430;2023-12-04T09:51:58;17.40;40.20
72484;DHT22;74199;52.014;5.430;2023-12-04T09:54:27;17.40;40.30
72484;DHT22;74199;52.014;5.430;2023-12-04T09:56:55;17.30;40.30
72484;DHT22;74199;52.014;5.430;2023-12-04T09:59:24;17.30;40.20
72484;DHT22;74199;52.014;5.430;2023-12-04T10:01:54;17.30;40.20
72484;DHT22;74199;52.014;5.430;2023-12-04T10:04:21;17.30;40.30
72484;DHT22;74199;52.014;5.430;2023-12-04T10:06:52;17.30;40.20
72484;DHT22;74199;52.014;5.430;2023-12-04T10:09:19;17.30;40.10
72484;DHT22;74199;52.014;5.430;2023-12-04T10:11:51;17.30;40.20
72484;DHT22;74199;52.014;5.430;2023-12-04T10:14:22;17.30;40.10
72484;DHT22;74199;52.014;5.430;2023-12-04T10:16:49;17.30;40.00
72484;DHT22;74199;52.014;5.430;2023-12-04T10:19:27;17.30;39.90
72484;DHT22;74199;52.014;5.430;2023-12-04T10:21:58;17.30;39.80
72484;DHT22;74199;52.014;5.430;2023-12-04T10:24:34;17.20;39.80
72484;DHT22;74199;52.014;5.430;2023-12-04T10:27:07;17.20;39.80
72484;DHT22;74199;52.014;5.430;2023-12-04T10:29:48;17.20;39.90
72484;DHT22;74199;52.014;5.430;2023-12-04T10:32:18;17.20;40.00
72484;DHT22;74199;52.014;5.430;2023-12-04T10:34:48;17.20;40.00
72484;DHT22;74199;52.014;5.430;2023-12-04T10:37:16;17.20;40.00
72484;DHT22;74199;52.014;5.430;2023-12-04T10:39:51;17.20;40.00
72484;DHT22;74199;52.014;5.430;2023-12-04T10:42:25;17.20;39.90
72484;DHT22;74199;52.014;5.430;2023-12-04T10:44:55;17.20;39.90
72484;DHT22;74199;52.014;5.430;2023-12-04T10:47:23;17.20;39.90
72484;DHT22;74199;52.014;5.430;2023-12-04T10:49:51;17.20;39.80
72484;DHT22;74199;52.014;5.430;2023-12-04T10:52:19;17.20;39.80
72484;DHT22;74199;52.014;5.430;2023-12-04T10:54:47;17.30;39.80
72484;DHT22;74199;52.014;5.430;2023-12-04T10:57:31;17.30;39.80
72484;DHT22;74199;52.014;5.430;2023-12-04T11:00:04;17.30;39.70
72484;DHT22;74199;52.014;5.430;2023-12-04T11:02:34;17.30;39.70
72484;DHT22;74199;52.014;5.430;2023-12-04T11:05:07;17.30;39.60
72484;DHT22;74199;52.014;5.430;2023-12-04T11:08:07;17.30;39.70
72484;DHT22;74199;52.014;5.430;2023-12-04T11:11:05;17.30;39.70
72484;DHT22;74199;52.014;5.430;2023-12-04T11:13:39;17.30;39.80
72484;DHT22;74199;52.014;5.430;2023-12-04T11:18:51;17.30;40.40
72484;DHT22;74199;52.014;5.430;2023-12-04T11:21:19;17.30;40.10
72484;DHT22;74199;52.014;5.430;2023-12-04T11:23:47;17.30;40.10
72484;DHT22;74199;52.014;5.430;2023-12-04T11:26:15;17.30;40.20
72484;DHT22;74199;52.014;5.430;2023-12-04T11:28:43;17.40;40.20
72484;DHT22;74199;52.014;5.430;2023-12-04T11:31:10;17.40;40.20
72484;DHT22;74199;52.014;5.430;2023-12-04T11:33:38;17.40;40.10
72484;DHT22;74199;52.014;5.430;2023-12-04T11:36:10;17.40;40.10
72484;DHT22;74199;52.014;5.430;2023-12-04T11:38:44;17.40;40.20
72484;DHT22;74199;52.014;5.430;2023-12-04T11:41:17;17.40;40.10
72484;DHT22;74199;52.014;5.430;2023-12-04T11:43:51;17.50;40.10
72484;DHT22;74199;52.014;5.430;2023-12-04T11:46:20;17.50;40.10
72484;DHT22;74199;52.014;5.430;2023-12-04T11:48:50;17.50;40.10
72484;DHT22;74199;52.014;5.430;2023-12-04T11:54:10;17.50;40.00
72484;DHT22;74199;52.014;5.430;2023-12-04T11:56:43;17.50;40.00
72484;DHT22;74199;52.014;5.430;2023-12-04T11:59:22;17.50;40.00
72484;DHT22;74199;52.014;5.430;2023-12-04T12:01:56;17.50;39.90
72484;DHT22;74199;52.014;5.430;2023-12-04T12:04:25;17.50;39.90
72484;DHT22;74199;52.014;5.430;2023-12-04T12:06:55;17.50;39.90
72484;DHT22;74199;52.014;5.430;2023-12-04T12:09:23;17.50;39.90
72484;DHT22;74199;52.014;5.430;2023-12-04T12:11:50;17.50;39.90
72484;DHT22;74199;52.014;5.430;2023-12-04T12:14:22;17.50;39.90
72484;DHT22;74199;52.014;5.430;2023-12-04T12:16:49;17.40;39.70
72484;DHT22;74199;52.014;5.430;2023-12-04T12:19:16;17.40;39.90
72484;DHT22;74199;52.014;5.430;2023-12-04T12:21:45;17.40;39.90
72484;DHT22;74199;52.014;5.430;2023-12-04T12:24:14;17.30;40.00
72484;DHT22;74199;52.014;5.430;2023-12-04T12:26:41;17.30;40.00
72484;DHT22;74199;52.014;5.430;2023-12-04T12:29:09;17.30;40.00
72484;DHT22;74199;52.014;5.430;2023-12-04T12:31:36;17.20;40.00
72484;DHT22;74199;52.014;5.430;2023-12-04T12:34:03;17.20;40.10
72484;DHT22;74199;52.014;5.430;2023-12-04T12:36:31;17.30;40.00
72484;DHT22;74199;52.014;5.430;2023-12-04T12:39:01;17.20;39.90
72484;DHT22;74199;52.014;5.430;2023-12-04T12:41:31;17.20;40.00
72484;DHT22;74199;52.014;5.430;2023-12-04T12:43:58;17.20;40.00
72484;DHT22;74199;52.014;5.430;2023-12-04T12:46:27;17.20;39.90
72484;DHT22;74199;52.014;5.430;2023-12-04T12:48:54;17.20;39.90
72484;DHT22;74199;52.014;5.430;2023-12-04T12:51:23;17.20;40.00
72484;DHT22;74199;52.014;5.430;2023-12-04T12:53:50;17.20;40.10
72484;DHT22;74199;52.014;5.430;2023-12-04T12:56:19;17.20;40.10
72484;DHT22;74199;52.014;5.430;2023-12-04T12:58:46;17.20;40.10
72484;DHT22;74199;52.014;5.430;2023-12-04T13:01:13;17.30;40.10
72484;DHT22;74199;52.014;5.430;2023-12-04T13:03:41;17.30;40.10
72484;DHT22;74199;52.014;5.430;2023-12-04T13:06:12;17.30;40.10
72484;DHT22;74199;52.014;5.430;2023-12-04T13:08:39;17.30;40.20
72484;DHT22;74199;52.014;5.430;2023-12-04T13:11:07;17.30;40.20
72484;DHT22;74199;52.014;5.430;2023-12-04T13:13:35;17.30;40.10
72484;DHT22;74199;52.014;5.430;2023-12-04T13:16:02;17.30;40.00
72484;DHT22;74199;52.014;5.430;2023-12-04T13:18:29;17.30;39.90
72484;DHT22;74199;52.014;5.430;2023-12-04T13:20:58;17.30;40.00
72484;DHT22;74199;52.014;5.430;2023-12-04T13:23:25;17.30;39.80
72484;DHT22;74199;52.014;5.430;2023-12-04T13:25:52;17.30;39.80
72484;DHT22;74199;52.014;5.430;2023-12-04T13:28:21;17.30;39.80
72484;DHT22;74199;52.014;5.430;2023-12-04T13:30:58;17.20;39.70
72484;DHT22;74199;52.014;5.430;2023-12-04T13:33:25;17.30;39.60
72484;DHT22;74199;52.014;5.430;2023-12-04T13:35:53;17.30;39.60
72484;DHT22;74199;52.014;5.430;2023-12-04T13:38:20;17.20;39.60
72484;DHT22;74199;52.014;5.430;2023-12-04T13:40:56;17.20;39.60
72484;DHT22;74199;52.014;5.430;2023-12-04T13:43:55;17.20;39.60
72484;DHT22;74199;52.014;5.430;2023-12-04T13:46:22;17.20;39.60
72484;DHT22;74199;52.014;5.430;2023-12-04T13:48:49;17.20;39.70
72484;DHT22;74199;52.014;5.430;2023-12-04T13:51:16;17.10;39.70
72484;DHT22;74199;52.014;5.430;2023-12-04T13:53:43;17.10;39.70
72484;DHT22;74199;52.014;5.430;2023-12-04T13:56:12;17.10;39.70
72484;DHT22;74199;52.014;5.430;2023-12-04T13:58:48;17.10;39.80
72484;DHT22;74199;52.014;5.430;2023-12-04T14:01:23;17.10;39.80
72484;DHT22;74199;52.014;5.430;2023-12-04T14:03:51;17.10;39.90
72484;DHT22;74199;52.014;5.430;2023-12-04T14:06:20;17.00;40.20
72484;DHT22;74199;52.014;5.430;2023-12-04T14:08:47;17.10;40.50
72484;DHT22;74199;52.014;5.430;2023-12-04T14:11:14;17.10;40.50
72484;DHT22;74199;52.014;5.430;2023-12-04T14:13:41;17.10;40.40
72484;DHT22;74199;52.014;5.430;2023-12-04T14:16:09;17.10;40.40
72484;DHT22;74199;52.014;5.430;2023-12-04T14:18:37;17.10;40.40
72484;DHT22;74199;52.014;5.430;2023-12-04T14:21:04;17.10;40.40
72484;DHT22;74199;52.014;5.430;2023-12-04T14:23:31;17.00;40.40
72484;DHT22;74199;52.014;5.430;2023-12-04T14:25:58;17.00;40.40
72484;DHT22;74199;52.014;5.430;2023-12-04T14:28:25;16.90;40.50
72484;DHT22;74199;52.014;5.430;2023-12-04T14:31:01;16.90;40.60
72484;DHT22;74199;52.014;5.430;2023-12-04T14:33:28;16.80;40.70
72484;DHT22;74199;52.014;5.430;2023-12-04T14:35:55;16.80;40.80
72484;DHT22;74199;52.014;5.430;2023-12-04T14:38:23;16.90;40.80
72484;DHT22;74199;52.014;5.430;2023-12-04T14:40:50;16.90;40.70
72484;DHT22;74199;52.014;5.430;2023-12-04T14:43:17;16.90;40.80
72484;DHT22;74199;52.014;5.430;2023-12-04T14:45:44;17.00;40.80
72484;DHT22;74199;52.014;5.430;2023-12-04T14:48:11;17.00;40.90
72484;DHT22;74199;52.014;5.430;2023-12-04T14:50:38;17.00;40.80
72484;DHT22;74199;52.014;5.430;2023-12-04T14:53:06;17.00;40.80
72484;DHT22;74199;52.014;5.430;2023-12-04T14:55:51;17.10;40.80
72484;DHT22;74199;52.014;5.430;2023-12-04T14:58:36;17.10;40.80
72484;DHT22;74199;52.014;5.430;2023-12-04T15:01:12;17.10;40.80
72484;DHT22;74199;52.014;5.430;2023-12-04T15:03:58;17.10;40.90
72484;DHT22;74199;52.014;5.430;2023-12-04T15:06:44;17.20;40.90
72484;DHT22;74199;52.014;5.430;2023-12-04T15:09:26;17.10;40.80
72484;DHT22;74199;52.014;5.430;2023-12-04T15:12:12;17.20;40.80
72484;DHT22;74199;52.014;5.430;2023-12-04T15:15:08;17.20;40.90
72484;DHT22;74199;52.014;5.430;2023-12-04T15:17:38;17.20;40.80
72484;DHT22;74199;52.014;5.430;2023-12-04T15:20:22;17.10;40.90
72484;DHT22;74199;52.014;5.430;2023-12-04T15:22:55;17.10;40.90
72484;DHT22;74199;52.014;5.430;2023-12-04T15:25:22;17.10;40.90
72484;DHT22;74199;52.014;5.430;2023-12-04T15:27:49;17.10;41.00
72484;DHT22;74199;52.014;5.430;2023-12-04T15:30:16;17.00;41.00
72484;DHT22;74199;52.014;5.430;2023-12-04T15:32:43;17.10;41.00
72484;DHT22;74199;52.014;5.430;2023-12-04T15:35:10;17.10;41.00
72484;DHT22;74199;52.014;5.430;2023-12-04T15:37:40;17.10;41.00
72484;DHT22;74199;52.014;5.430;2023-12-04T15:40:07;17.10;41.00
72484;DHT22;74199;52.014;5.430;2023-12-04T15:42:36;17.10;41.00
72484;DHT22;74199;52.014;5.430;2023-12-04T15:45:03;17.10;41.00